createdAt,value
2022-12-23T00:02:22.781Z,48.83
2022-12-23T00:04:49.785Z,52.38
2022-12-23T00:07:16.770Z,49.33
2022-12-23T00:09:43.739Z,46.63
2022-12-23T00:12:29.674Z,50.60
2022-12-23T00:15:05.551Z,57.60
2022-12-23T00:17:37.033Z,48.65
2022-12-23T00:20:05.613Z,51.85
2022-12-23T00:22:51.004Z,53.13
2022-12-23T00:25:18.096Z,40.05
2022-12-23T00:28:01.563Z,38.75
2022-12-23T00:30:28.947Z,32.63
2022-12-23T00:32:56.063Z,31.45
2022-12-23T00:35:23.004Z,28.45
2022-12-23T00:37:50.116Z,27.83
2022-12-23T00:40:35.970Z,23.85
2022-12-23T00:43:03.111Z,23.05
2022-12-23T00:45:30.147Z,25.92
2022-12-23T00:48:15.954Z,24.95
2022-12-23T00:50:42.943Z,25.05
2022-12-23T00:53:10.012Z,21.27
2022-12-23T00:55:37.022Z,25.73
2022-12-23T00:58:04.032Z,31.50
2022-12-23T01:00:49.502Z,33.42
2022-12-23T01:03:35.495Z,38.42
2022-12-23T01:06:03.750Z,38.33
2022-12-23T01:08:30.875Z,38.45
2022-12-23T01:11:02.275Z,37.90
2022-12-23T01:13:29.335Z,36.45
2022-12-23T01:16:13.478Z,29.75
2022-12-23T01:18:44.276Z,25.77
2022-12-23T01:21:11.686Z,17.25
2022-12-23T01:23:38.730Z,18.95
2022-12-23T01:26:07.959Z,20.05
2022-12-23T01:28:36.270Z,19.83
2022-12-23T01:31:05.477Z,20.95
2022-12-23T01:33:33.844Z,22.13
2022-12-23T01:36:07.052Z,22.00
2022-12-23T01:38:37.088Z,20.77
2022-12-23T01:41:04.269Z,19.35
2022-12-23T01:43:49.330Z,22.08
2022-12-23T01:46:16.604Z,17.10
2022-12-23T01:48:48.439Z,16.05
2022-12-23T01:51:21.678Z,17.60
2022-12-23T01:53:52.538Z,14.35
2022-12-23T01:56:25.090Z,14.85
2022-12-23T01:58:59.539Z,15.23
2022-12-23T02:01:47.381Z,14.35
2022-12-23T02:04:18.958Z,12.95
2022-12-23T02:07:07.607Z,16.58
2022-12-23T02:09:37.767Z,16.52
2022-12-23T02:12:56.923Z,21.27
2022-12-23T02:15:57.416Z,14.30
2022-12-23T02:18:55.756Z,16.02
2022-12-23T02:22:02.248Z,19.17
2022-12-23T02:25:07.545Z,27.65
2022-12-23T02:28:21.000Z,27.65
2022-12-23T02:31:00.441Z,27.13
2022-12-23T02:33:43.946Z,29.23
2022-12-23T02:36:23.720Z,29.98
2022-12-23T02:39:02.408Z,28.02
2022-12-23T02:41:42.723Z,26.70
2022-12-23T02:44:49.516Z,24.17
2022-12-23T02:47:40.778Z,26.95
2022-12-23T02:50:24.371Z,27.42
2022-12-23T02:52:53.704Z,28.23
2022-12-23T02:55:27.103Z,29.27
2022-12-23T02:57:56.026Z,29.15
2022-12-23T03:00:23.889Z,28.13
2022-12-23T03:02:51.132Z,26.33
2022-12-23T03:05:27.807Z,29.05
2022-12-23T03:08:02.856Z,27.08
2022-12-23T03:11:07.193Z,27.02
2022-12-23T03:13:55.767Z,26.50
2022-12-23T03:17:06.337Z,29.83
2022-12-23T03:19:52.830Z,26.42
2022-12-23T03:23:00.246Z,27.38
2022-12-23T03:25:38.205Z,29.33
2022-12-23T03:28:22.461Z,28.77
2022-12-23T03:30:54.975Z,28.42
2022-12-23T03:33:31.947Z,31.23
2022-12-23T03:36:07.111Z,30.20
2022-12-23T03:38:38.295Z,26.88
2022-12-23T03:41:10.923Z,29.15
2022-12-23T03:43:50.183Z,29.70
2022-12-23T03:46:23.181Z,24.73
2022-12-23T03:48:54.709Z,25.67
2022-12-23T03:53:59.759Z,27.00
2022-12-23T03:56:33.178Z,25.45
2022-12-23T03:59:08.616Z,25.38
2022-12-23T04:02:14.632Z,29.73
2022-12-23T04:05:15.809Z,25.08
2022-12-23T04:08:13.368Z,27.05
2022-12-23T04:10:40.628Z,25.88
2022-12-23T04:13:08.124Z,27.67
2022-12-23T04:15:43.532Z,27.10
2022-12-23T04:18:11.228Z,28.00
2022-12-23T04:20:38.494Z,27.10
2022-12-23T04:23:05.880Z,27.38
2022-12-23T04:25:33.006Z,24.75
2022-12-23T04:28:00.586Z,24.77
2022-12-23T04:30:33.532Z,26.85
2022-12-23T04:33:01.875Z,24.50
2022-12-23T04:35:29.484Z,26.05
2022-12-23T04:37:56.576Z,22.55
2022-12-23T04:40:23.600Z,23.13
2022-12-23T04:42:50.759Z,24.02
2022-12-23T04:45:17.806Z,23.27
2022-12-23T04:47:44.780Z,24.50
2022-12-23T04:50:15.046Z,27.95
2022-12-23T04:52:43.514Z,25.60
2022-12-23T04:55:11.272Z,25.73
2022-12-23T04:57:38.342Z,23.17
2022-12-23T05:00:06.577Z,23.08
2022-12-23T05:02:33.776Z,28.88
2022-12-23T05:05:00.923Z,27.50
2022-12-23T05:07:27.903Z,31.88
2022-12-23T05:09:55.095Z,29.10
2022-12-23T05:12:22.139Z,28.45
2022-12-23T05:14:49.084Z,29.73
2022-12-23T05:17:16.172Z,28.67
2022-12-23T05:19:43.191Z,28.70
2022-12-23T05:22:10.368Z,33.90
2022-12-23T05:24:37.481Z,31.88
2022-12-23T05:27:04.546Z,29.08
2022-12-23T05:29:31.639Z,26.90
2022-12-23T05:31:58.716Z,27.98
2022-12-23T05:34:25.950Z,28.50
2022-12-23T05:36:52.952Z,22.55
2022-12-23T05:39:20.087Z,22.67
2022-12-23T05:41:47.290Z,30.35
2022-12-23T05:44:14.574Z,38.40
2022-12-23T05:46:41.777Z,30.85
2022-12-23T05:49:08.872Z,27.23
2022-12-23T05:51:35.970Z,24.25
2022-12-23T05:54:03.012Z,25.45
2022-12-23T05:56:30.156Z,27.05
2022-12-23T05:58:57.126Z,23.67
2022-12-23T06:01:24.155Z,23.15
2022-12-23T06:03:51.219Z,24.17
2022-12-23T06:06:18.305Z,23.38
2022-12-23T06:08:45.375Z,22.83
2022-12-23T06:11:13.352Z,24.08
2022-12-23T06:13:40.372Z,22.70
2022-12-23T06:16:07.702Z,25.75
2022-12-23T06:18:34.908Z,24.80
2022-12-23T06:21:01.883Z,24.98
2022-12-23T06:23:28.938Z,27.38
2022-12-23T06:26:00.641Z,28.98
2022-12-23T06:28:30.775Z,27.13
2022-12-23T06:30:58.131Z,29.02
2022-12-23T06:33:25.716Z,29.00
2022-12-23T06:35:52.699Z,28.88
2022-12-23T06:38:20.188Z,28.10
2022-12-23T06:40:47.454Z,29.30
2022-12-23T06:43:15.016Z,35.03
2022-12-23T06:45:47.280Z,35.20
2022-12-23T06:48:14.874Z,34.70
2022-12-23T06:50:41.975Z,37.00
2022-12-23T06:53:09.434Z,36.80
2022-12-23T06:55:36.613Z,36.10
2022-12-23T06:58:03.813Z,37.83
2022-12-23T07:00:31.052Z,38.63
2022-12-23T07:02:58.256Z,40.33
2022-12-23T07:05:25.308Z,38.53
2022-12-23T07:07:52.542Z,42.42
2022-12-23T07:10:19.614Z,50.28
2022-12-23T07:12:50.707Z,49.15
2022-12-23T07:17:45.070Z,50.20
2022-12-23T07:20:13.872Z,59.90
2022-12-23T07:22:41.835Z,63.45
2022-12-23T07:25:09.416Z,66.32
2022-12-23T07:27:36.465Z,56.17
2022-12-23T07:30:04.226Z,47.85
2022-12-23T07:32:31.237Z,47.90
2022-12-23T07:34:58.888Z,46.95
2022-12-23T07:37:25.849Z,46.83
2022-12-23T07:39:52.886Z,46.05
2022-12-23T07:45:07.802Z,45.88
2022-12-23T07:47:34.757Z,47.67
2022-12-23T07:50:01.925Z,43.75
2022-12-23T07:52:29.356Z,43.05
2022-12-23T07:54:56.374Z,41.42
2022-12-23T07:57:24.503Z,35.75
2022-12-23T07:59:51.574Z,53.65
2022-12-23T08:02:18.671Z,59.28
2022-12-23T08:04:46.497Z,53.28
2022-12-23T08:07:13.861Z,54.25
2022-12-23T08:09:40.908Z,52.50
2022-12-23T08:12:08.660Z,56.65
2022-12-23T08:14:36.182Z,64.70
2022-12-23T08:17:03.161Z,65.47
2022-12-23T08:19:30.248Z,60.25
2022-12-23T08:21:57.350Z,58.20
2022-12-23T08:24:24.797Z,59.60
2022-12-23T08:26:51.852Z,56.13
2022-12-23T08:29:18.899Z,54.42
2022-12-23T08:31:45.900Z,54.70
2022-12-23T08:34:12.978Z,53.65
2022-12-23T08:36:40.269Z,51.60
2022-12-23T08:39:09.877Z,51.63
2022-12-23T08:41:41.950Z,55.80
2022-12-23T08:44:09.616Z,60.72
2022-12-23T08:46:38.568Z,58.58
2022-12-23T08:49:07.039Z,56.42
2022-12-23T08:51:35.211Z,54.75
2022-12-23T08:54:02.482Z,54.90
2022-12-23T08:56:34.605Z,57.70
2022-12-23T08:59:01.973Z,56.35
2022-12-23T09:01:31.000Z,58.22
2022-12-23T09:03:58.584Z,56.03
2022-12-23T09:06:29.813Z,52.88
2022-12-23T09:11:27.499Z,49.58
2022-12-23T09:13:55.050Z,78.85
2022-12-23T09:16:23.016Z,55.50
2022-12-23T09:18:50.142Z,57.95
2022-12-23T09:21:20.703Z,56.00
2022-12-23T09:23:48.519Z,55.30
2022-12-23T09:26:21.803Z,55.17
2022-12-23T09:28:48.931Z,54.58
2022-12-23T09:31:15.931Z,47.40
2022-12-23T09:33:43.630Z,48.03
2022-12-23T09:36:10.989Z,48.55
2022-12-23T09:38:38.360Z,46.05
2022-12-23T09:41:44.014Z,46.15
2022-12-23T09:44:27.721Z,50.05
2022-12-23T09:46:59.891Z,52.42
2022-12-23T09:49:27.673Z,52.08
2022-12-23T09:52:00.415Z,49.08
2022-12-23T09:54:31.362Z,48.60
2022-12-23T09:57:12.047Z,53.50
2022-12-23T10:00:08.489Z,52.63
2022-12-23T10:03:10.860Z,54.60
2022-12-23T10:06:15.948Z,56.88
2022-12-23T10:08:49.255Z,52.30
2022-12-23T10:11:22.540Z,53.70
2022-12-23T10:13:52.558Z,54.38
2022-12-23T10:16:24.587Z,57.55
2022-12-23T10:19:41.973Z,56.38
2022-12-23T10:22:17.738Z,52.65
2022-12-23T10:24:48.921Z,51.97
2022-12-23T10:27:27.859Z,49.88
2022-12-23T10:29:56.113Z,47.22
2022-12-23T10:32:54.769Z,53.97
2022-12-23T10:35:54.399Z,52.63
2022-12-23T10:38:54.534Z,52.22
2022-12-23T10:41:52.631Z,49.38
2022-12-23T10:44:50.056Z,49.83
2022-12-23T10:47:49.261Z,50.08
2022-12-23T10:50:36.012Z,47.67
2022-12-23T10:53:11.212Z,42.90
2022-12-23T10:55:39.223Z,43.70
2022-12-23T10:58:13.325Z,42.95
2022-12-23T11:00:43.415Z,42.85
2022-12-23T11:03:32.698Z,45.15
2022-12-23T11:06:01.026Z,43.15
2022-12-23T11:08:31.013Z,41.95
2022-12-23T11:11:00.195Z,42.90
2022-12-23T11:13:38.146Z,43.25
2022-12-23T11:16:28.128Z,45.40
2022-12-23T11:19:14.050Z,47.28
2022-12-23T11:21:55.483Z,41.33
2022-12-23T11:27:02.774Z,40.28
2022-12-23T11:29:34.758Z,42.47
2022-12-23T11:32:06.873Z,42.42
2022-12-23T11:34:38.869Z,42.00
2022-12-23T11:37:07.722Z,43.85
2022-12-23T11:39:37.502Z,41.10
2022-12-23T11:42:13.956Z,41.50
2022-12-23T11:44:48.094Z,35.25
2022-12-23T11:47:36.100Z,37.13
2022-12-23T11:50:30.667Z,44.28
2022-12-23T11:53:24.553Z,32.45
2022-12-23T11:56:08.423Z,28.23
2022-12-23T11:58:46.365Z,28.38
2022-12-23T12:01:20.511Z,23.70
2022-12-23T12:03:55.798Z,17.75
2022-12-23T12:06:23.570Z,17.85
2022-12-23T12:08:53.579Z,19.42
2022-12-23T12:12:01.111Z,21.42
2022-12-23T12:14:42.745Z,17.83
2022-12-23T12:17:25.456Z,18.15
2022-12-23T12:20:14.817Z,19.70
2022-12-23T12:22:57.984Z,20.00
2022-12-23T12:25:41.449Z,21.13
2022-12-23T12:28:22.832Z,22.20
2022-12-23T12:30:59.939Z,17.88
2022-12-23T12:33:49.283Z,22.17
2022-12-23T12:36:39.773Z,19.50
2022-12-23T12:39:15.974Z,23.77
2022-12-23T12:42:05.750Z,21.92
2022-12-23T12:44:52.082Z,17.90
2022-12-23T12:50:28.034Z,22.65
2022-12-23T12:53:00.761Z,12.90
2022-12-23T12:55:40.103Z,22.45
2022-12-23T12:58:18.496Z,29.02
2022-12-23T13:01:04.010Z,13.85
2022-12-23T13:04:04.951Z,16.50
2022-12-23T13:07:08.504Z,16.58
2022-12-23T13:10:06.569Z,7.20
2022-12-23T13:13:14.576Z,16.92
2022-12-23T13:16:28.123Z,4.35
2022-12-23T13:19:05.003Z,2.70
2022-12-23T13:22:01.248Z,2.67
2022-12-23T13:24:40.091Z,2.67
2022-12-23T13:27:22.017Z,4.38
2022-12-23T13:30:19.423Z,2.85
2022-12-23T14:55:40.581Z,5.20
2022-12-23T14:58:42.592Z,5.07
2022-12-23T15:01:13.372Z,3.65
2022-12-23T15:03:44.713Z,3.40
2022-12-23T15:06:16.596Z,5.40
2022-12-23T15:08:46.221Z,4.15
2022-12-23T15:11:22.983Z,5.15
2022-12-23T15:13:53.052Z,5.43
2022-12-23T15:16:26.645Z,4.63
2022-12-23T15:18:58.941Z,4.65
2022-12-23T15:21:32.174Z,4.68
2022-12-23T15:23:59.524Z,5.10
2022-12-23T15:26:30.851Z,4.70
2022-12-23T15:28:59.306Z,6.07
2022-12-23T15:31:39.864Z,5.10
2022-12-23T15:34:17.095Z,5.90
2022-12-23T15:36:46.031Z,5.68
2022-12-23T15:39:33.500Z,6.30
2022-12-23T15:42:01.264Z,6.63
2022-12-23T15:44:39.697Z,6.18
2022-12-23T15:47:36.552Z,5.85
2022-12-23T15:50:12.303Z,6.78
2022-12-23T15:52:41.573Z,6.97
2022-12-23T15:55:15.349Z,6.47
2022-12-23T15:57:50.655Z,5.35
2022-12-23T16:00:26.583Z,6.10
2022-12-23T16:03:01.900Z,5.80
2022-12-23T16:05:38.159Z,5.38
2022-12-23T16:08:35.170Z,4.28
2022-12-23T16:11:20.500Z,4.38
2022-12-23T16:13:59.216Z,4.22
2022-12-23T16:16:42.717Z,4.22
2022-12-23T16:19:47.783Z,4.03
2022-12-23T16:22:41.698Z,3.60
2022-12-23T16:25:26.790Z,3.80
2022-12-23T16:27:59.559Z,4.25
2022-12-23T16:30:35.178Z,4.50
2022-12-23T16:33:05.370Z,2.97
2022-12-23T16:35:43.662Z,3.88
2022-12-23T16:38:22.655Z,3.70
2022-12-23T16:40:52.445Z,3.95
2022-12-23T16:43:21.219Z,3.63
2022-12-23T16:45:53.270Z,3.10
2022-12-23T16:48:58.698Z,2.83
2022-12-23T16:51:27.444Z,3.72
2022-12-23T16:53:57.845Z,4.25
2022-12-23T16:56:28.528Z,3.47
2022-12-23T16:58:55.652Z,3.50
2022-12-23T17:01:26.203Z,3.60
2022-12-23T17:03:54.196Z,3.88
2022-12-23T17:06:21.256Z,3.97
2022-12-23T17:08:48.943Z,4.05
2022-12-23T17:11:25.953Z,8.20
2022-12-23T17:13:56.608Z,3.60
2022-12-23T17:16:29.110Z,3.42
2022-12-23T17:18:56.425Z,3.75
2022-12-23T17:21:35.165Z,3.67
2022-12-23T17:24:24.306Z,3.05
2022-12-23T17:26:51.874Z,3.60
2022-12-23T17:29:20.380Z,3.00
2022-12-23T17:31:48.841Z,4.07
2022-12-23T17:34:17.999Z,3.45
2022-12-23T17:36:49.836Z,4.28
2022-12-23T17:39:17.375Z,3.75
2022-12-23T17:41:44.600Z,2.97
2022-12-23T17:44:14.715Z,4.07
2022-12-23T17:46:41.822Z,3.38
2022-12-23T17:49:09.438Z,9.85
2022-12-23T17:51:36.844Z,6.22
2022-12-23T17:54:05.226Z,3.92
2022-12-23T17:56:33.689Z,3.17
2022-12-23T17:59:00.936Z,2.53
2022-12-23T18:01:30.178Z,4.28
2022-12-23T18:03:59.375Z,3.38
2022-12-23T18:06:28.556Z,3.55
2022-12-23T18:08:57.577Z,3.47
2022-12-23T18:11:35.610Z,4.05
2022-12-23T18:14:04.251Z,3.72
2022-12-23T18:16:31.577Z,5.72
2022-12-23T18:18:58.837Z,5.10
2022-12-23T18:21:29.757Z,6.30
2022-12-23T18:24:00.013Z,6.85
2022-12-23T18:26:27.183Z,5.90
2022-12-23T18:28:54.668Z,5.45
2022-12-23T18:31:26.040Z,4.60
2022-12-23T18:33:53.558Z,4.22
2022-12-23T18:36:26.754Z,4.32
2022-12-23T18:38:54.579Z,5.10
2022-12-23T18:41:22.317Z,6.03
2022-12-23T18:43:50.150Z,6.15
2022-12-23T18:46:17.555Z,5.82
2022-12-23T18:48:44.694Z,6.45
2022-12-23T18:51:20.025Z,4.05
2022-12-23T18:53:48.350Z,5.07
2022-12-23T18:56:17.261Z,5.15
2022-12-23T18:58:44.296Z,5.53
2022-12-23T19:01:13.135Z,5.75
2022-12-23T19:03:40.830Z,5.65
2022-12-23T19:06:09.892Z,2.90
2022-12-23T19:08:38.176Z,3.53
2022-12-23T19:11:20.603Z,4.05
2022-12-23T19:13:48.139Z,4.00
2022-12-23T19:16:20.890Z,4.38
2022-12-23T19:18:49.234Z,5.18
2022-12-23T19:21:17.665Z,5.57
2022-12-23T19:23:45.265Z,6.00
2022-12-23T19:26:14.355Z,6.05
2022-12-23T19:28:42.153Z,6.30
2022-12-23T19:31:14.472Z,4.72
2022-12-23T19:33:45.572Z,5.40
2022-12-23T19:36:15.822Z,5.35
2022-12-23T19:38:42.970Z,6.22
2022-12-23T19:41:11.123Z,7.18
2022-12-23T19:43:38.903Z,3.50
2022-12-23T19:46:10.470Z,4.63
2022-12-23T19:48:38.340Z,6.78
2022-12-23T19:51:14.967Z,7.88
2022-12-23T19:53:42.818Z,7.53
2022-12-23T19:56:17.317Z,7.45
2022-12-23T19:58:44.979Z,6.97
2022-12-23T20:01:21.107Z,7.82
2022-12-23T20:03:49.162Z,15.68
2022-12-23T20:06:25.808Z,18.95
2022-12-23T20:08:59.722Z,19.95
2022-12-23T20:11:30.941Z,21.35
2022-12-23T20:13:58.682Z,21.80
2022-12-23T20:16:26.728Z,18.40
2022-12-23T20:18:54.272Z,15.18
2022-12-23T20:21:24.845Z,14.80
2022-12-23T20:23:53.097Z,14.93
2022-12-23T20:26:22.255Z,11.05
2022-12-23T20:28:50.387Z,10.75
2022-12-23T20:31:22.342Z,10.02
2022-12-23T20:33:51.360Z,10.50
2022-12-23T20:36:23.575Z,10.68
2022-12-23T20:38:53.332Z,10.43
2022-12-23T20:41:23.135Z,9.52
2022-12-23T20:44:23.510Z,14.52
2022-12-23T20:46:41.373Z,11.82
2022-12-23T20:49:08.717Z,13.10
2022-12-23T20:51:35.888Z,13.18
2022-12-23T20:54:02.988Z,12.13
2022-12-23T20:56:30.710Z,11.90
2022-12-23T20:58:59.530Z,9.63
2022-12-23T21:01:38.907Z,8.88
2022-12-23T21:04:08.686Z,10.05
2022-12-23T21:06:36.510Z,9.63
2022-12-23T21:09:06.007Z,10.00
2022-12-23T21:11:36.115Z,12.32
2022-12-23T21:14:06.656Z,12.13
2022-12-23T21:16:36.642Z,12.32
2022-12-23T21:19:05.098Z,10.90
2022-12-23T21:21:32.261Z,12.07
2022-12-23T21:24:05.061Z,11.90
2022-12-23T21:26:34.267Z,12.57
2022-12-23T21:29:04.087Z,9.70
2022-12-23T21:31:32.556Z,10.55
2022-12-23T21:33:59.726Z,9.82
2022-12-23T21:36:31.310Z,11.82
2022-12-23T21:38:59.240Z,13.48
2022-12-23T21:41:29.271Z,15.20
2022-12-23T21:43:57.799Z,11.93
2022-12-23T21:46:25.734Z,14.30
2022-12-23T21:48:53.372Z,15.68
2022-12-23T21:51:38.920Z,13.38
2022-12-23T21:54:06.651Z,14.98
2022-12-23T21:56:33.780Z,15.75
2022-12-23T21:59:06.289Z,13.90
2022-12-23T22:01:34.178Z,14.25
2022-12-23T22:04:01.152Z,16.88
2022-12-23T22:06:34.024Z,19.02
2022-12-23T22:09:00.973Z,19.67
2022-12-23T22:11:30.934Z,22.33
2022-12-23T22:13:59.207Z,20.48
2022-12-23T22:16:27.676Z,19.90
2022-12-23T22:18:56.249Z,22.98
2022-12-23T22:21:25.252Z,19.30
2022-12-23T22:23:53.618Z,19.60
2022-12-23T22:26:25.835Z,20.23
2022-12-23T22:28:55.365Z,19.33
2022-12-23T22:31:49.213Z,18.90
2022-12-23T22:34:18.805Z,15.70
2022-12-23T22:36:46.600Z,16.48
2022-12-23T22:39:20.204Z,16.88
2022-12-23T22:41:49.202Z,17.05
2022-12-23T22:44:16.588Z,17.67
2022-12-23T22:46:43.978Z,18.92
2022-12-23T22:49:17.099Z,15.20
2022-12-23T22:51:44.661Z,17.63
2022-12-23T22:54:11.837Z,17.55
2022-12-23T22:56:39.016Z,16.20
2022-12-23T22:59:06.260Z,15.68
2022-12-23T23:01:35.257Z,18.48
2022-12-23T23:04:03.695Z,17.73
2022-12-23T23:06:39.099Z,18.48
2022-12-23T23:09:07.856Z,16.92
2022-12-23T23:11:35.490Z,17.83
2022-12-23T23:14:02.650Z,16.67
2022-12-23T23:16:29.764Z,18.20
2022-12-23T23:18:57.963Z,16.40
2022-12-23T23:21:24.987Z,15.90
2022-12-23T23:23:52.304Z,15.02
2022-12-23T23:26:20.900Z,16.13
2022-12-23T23:28:48.510Z,16.95
2022-12-23T23:34:03.135Z,18.63
2022-12-23T23:36:30.284Z,18.73
2022-12-23T23:38:57.421Z,18.48
2022-12-23T23:41:24.979Z,17.55
2022-12-23T23:43:52.244Z,20.23
2022-12-23T23:46:19.772Z,16.33
2022-12-23T23:48:47.067Z,15.20
2022-12-23T23:51:14.155Z,13.63
2022-12-23T23:53:41.163Z,18.63
2022-12-23T23:56:09.026Z,20.95
2022-12-23T23:58:37.691Z,23.23
